sensor_id;sensor_type;location;lat;lon;timestamp;pressure;altitude;pressure_sealevel;temperature;humidity
5996;BME280;3026;53.612;7.278;2022-12-08T00:00:10;100552.75;;;3.35;100.00
5996;BME280;3026;53.612;7.278;2022-12-08T00:02:36;100568.41;;;3.41;100.00
5996;BME280;3026;53.612;7.278;2022-12-08T00:05:05;100571.56;;;3.46;100.00
5996;BME280;3026;53.612;7.278;2022-12-08T00:07:49;100571.44;;;3.48;100.00
5996;BME280;3026;53.612;7.278;2022-12-08T00:10:34;100567.34;;;3.54;100.00
5996;BME280;3026;53.612;7.278;2022-12-08T00:13:01;100566.22;;;3.56;100.00
5996;BME280;3026;53.612;7.278;2022-12-08T00:15:28;100572.22;;;3.60;100.00
5996;BME280;3026;53.612;7.278;2022-12-08T00:17:54;100568.53;;;3.61;100.00
5996;BME280;3026;53.612;7.278;2022-12-08T00:20:23;100573.66;;;3.64;100.00
5996;BME280;3026;53.612;7.278;2022-12-08T00:22:49;100577.06;;;3.66;100.00
5996;BME280;3026;53.612;7.278;2022-12-08T00:25:16;100594.66;;;3.70;100.00
5996;BME280;3026;53.612;7.278;2022-12-08T00:27:43;100591.84;;;3.71;100.00
5996;BME280;3026;53.612;7.278;2022-12-08T00:30:10;100582.44;;;3.66;100.00
5996;BME280;3026;53.612;7.278;2022-12-08T00:32:37;100581.59;;;3.65;100.00
5996;BME280;3026;53.612;7.278;2022-12-08T00:35:05;100570.75;;;3.56;100.00
5996;BME280;3026;53.612;7.278;2022-12-08T00:37:33;100580.09;;;3.51;100.00
5996;BME280;3026;53.612;7.278;2022-12-08T00:40:00;100560.75;;;3.46;100.00
5996;BME280;3026;53.612;7.278;2022-12-08T00:42:27;100543.16;;;3.42;100.00
5996;BME280;3026;53.612;7.278;2022-12-08T00:44:54;100543.16;;;3.42;100.00
5996;BME280;3026;53.612;7.278;2022-12-08T00:47:20;100538.06;;;3.39;100.00
5996;BME280;3026;53.612;7.278;2022-12-08T00:49:47;100544.28;;;3.40;100.00
5996;BME280;3026;53.612;7.278;2022-12-08T00:52:14;100540.88;;;3.38;100.00
5996;BME280;3026;53.612;7.278;2022-12-08T00:54:42;100531.94;;;3.37;100.00
5996;BME280;3026;53.612;7.278;2022-12-08T00:57:09;100531.19;;;3.35;100.00
5996;BME280;3026;53.612;7.278;2022-12-08T00:59:36;100528.50;;;3.35;100.00
5996;BME280;3026;53.612;7.278;2022-12-08T01:02:03;100516.03;;;3.34;100.00
5996;BME280;3026;53.612;7.278;2022-12-08T01:04:29;100493.75;;;3.32;100.00
5996;BME280;3026;53.612;7.278;2022-12-08T01:06:57;100493.31;;;3.27;100.00
5996;BME280;3026;53.612;7.278;2022-12-08T01:09:23;100494.31;;;3.26;100.00
5996;BME280;3026;53.612;7.278;2022-12-08T01:11:52;100496.53;;;3.21;100.00
5996;BME280;3026;53.612;7.278;2022-12-08T01:14:19;100494.13;;;3.18;100.00
5996;BME280;3026;53.612;7.278;2022-12-08T01:16:46;100493.13;;;3.19;100.00
5996;BME280;3026;53.612;7.278;2022-12-08T01:19:14;100492.41;;;3.17;100.00
5996;BME280;3026;53.612;7.278;2022-12-08T01:21:42;100490.00;;;3.14;100.00
5996;BME280;3026;53.612;7.278;2022-12-08T01:24:11;100495.09;;;3.17;100.00
5996;BME280;3026;53.612;7.278;2022-12-08T01:26:38;100489.72;;;3.17;100.00
5996;BME280;3026;53.612;7.278;2022-12-08T01:29:06;100487.16;;;3.15;100.00
5996;BME280;3026;53.612;7.278;2022-12-08T01:31:33;100500.75;;;3.14;100.00
5996;BME280;3026;53.612;7.278;2022-12-08T01:34:00;100500.75;;;3.14;100.00
5996;BME280;3026;53.612;7.278;2022-12-08T01:36:29;100501.00;;;3.11;100.00
5996;BME280;3026;53.612;7.278;2022-12-08T01:38:57;100507.25;;;3.11;100.00
5996;BME280;3026;53.612;7.278;2022-12-08T01:41:26;100505.69;;;3.09;100.00
5996;BME280;3026;53.612;7.278;2022-12-08T01:43:57;100504.97;;;3.07;100.00
5996;BME280;3026;53.612;7.278;2022-12-08T01:46:27;100508.66;;;3.06;100.00
5996;BME280;3026;53.612;7.278;2022-12-08T01:49:00;100506.94;;;3.05;100.00
5996;BME280;3026;53.612;7.278;2022-12-08T01:51:28;100501.56;;;3.05;100.00
5996;BME280;3026;53.612;7.278;2022-12-08T01:53:57;100499.84;;;3.04;100.00
5996;BME280;3026;53.612;7.278;2022-12-08T01:56:28;100505.81;;;3.07;100.00
5996;BME280;3026;53.612;7.278;2022-12-08T01:58:58;100535.31;;;3.09;100.00
5996;BME280;3026;53.612;7.278;2022-12-08T02:01:26;100534.31;;;3.10;100.00
5996;BME280;3026;53.612;7.278;2022-12-08T02:03:57;100526.50;;;3.07;100.00
5996;BME280;3026;53.612;7.278;2022-12-08T02:06:25;100526.97;;;3.12;100.00
5996;BME280;3026;53.612;7.278;2022-12-08T02:08:53;100527.94;;;3.11;100.00
5996;BME280;3026;53.612;7.278;2022-12-08T02:11:20;100538.47;;;3.14;100.00
5996;BME280;3026;53.612;7.278;2022-12-08T02:13:48;100539.34;;;3.14;100.00
5996;BME280;3026;53.612;7.278;2022-12-08T02:16:28;100537.22;;;3.18;100.00
5996;BME280;3026;53.612;7.278;2022-12-08T02:19:06;100539.91;;;3.18;100.00
5996;BME280;3026;53.612;7.278;2022-12-08T02:21:43;100541.41;;;3.11;100.00
5996;BME280;3026;53.612;7.278;2022-12-08T02:24:16;100544.06;;;3.01;100.00
5996;BME280;3026;53.612;7.278;2022-12-08T02:27:19;100537.81;;;2.80;100.00
5996;BME280;3026;53.612;7.278;2022-12-08T02:30:10;100538.25;;;2.64;100.00
5996;BME280;3026;53.612;7.278;2022-12-08T02:35:53;100541.00;;;2.42;100.00
5996;BME280;3026;53.612;7.278;2022-12-08T02:38:33;100529.06;;;2.34;100.00
5996;BME280;3026;53.612;7.278;2022-12-08T02:41:18;100522.47;;;2.27;100.00
5996;BME280;3026;53.612;7.278;2022-12-08T02:43:54;100528.38;;;2.21;100.00
5996;BME280;3026;53.612;7.278;2022-12-08T02:46:26;100514.44;;;2.16;100.00
5996;BME280;3026;53.612;7.278;2022-12-08T02:48:55;100491.22;;;2.15;100.00
5996;BME280;3026;53.612;7.278;2022-12-08T02:51:24;100468.00;;;2.14;100.00
5996;BME280;3026;53.612;7.278;2022-12-08T02:53:51;100464.84;;;2.09;100.00
5996;BME280;3026;53.612;7.278;2022-12-08T02:56:34;100454.59;;;2.03;100.00
5996;BME280;3026;53.612;7.278;2022-12-08T02:59:15;100443.84;;;2.03;100.00
5996;BME280;3026;53.612;7.278;2022-12-08T03:01:56;100438.97;;;1.97;100.00
5996;BME280;3026;53.612;7.278;2022-12-08T03:04:34;100439.69;;;1.99;100.00
5996;BME280;3026;53.612;7.278;2022-12-08T03:07:11;100437.25;;;1.96;100.00
5996;BME280;3026;53.612;7.278;2022-12-08T03:09:45;100448.84;;;1.96;100.00
5996;BME280;3026;53.612;7.278;2022-12-08T03:12:18;100452.66;;;1.94;100.00
5996;BME280;3026;53.612;7.278;2022-12-08T03:14:49;100443.88;;;1.92;100.00
5996;BME280;3026;53.612;7.278;2022-12-08T03:17:17;100421.91;;;1.87;100.00
5996;BME280;3026;53.612;7.278;2022-12-08T03:19:47;100425.03;;;1.92;100.00
5996;BME280;3026;53.612;7.278;2022-12-08T03:22:20;100425.03;;;1.92;100.00
5996;BME280;3026;53.612;7.278;2022-12-08T03:24:48;100428.97;;;1.88;100.00
5996;BME280;3026;53.612;7.278;2022-12-08T03:27:16;100427.28;;;1.87;100.00
5996;BME280;3026;53.612;7.278;2022-12-08T03:29:46;100418.22;;;1.88;100.00
5996;BME280;3026;53.612;7.278;2022-12-08T03:32:21;100419.94;;;1.89;100.00
5996;BME280;3026;53.612;7.278;2022-12-08T03:34:50;100428.97;;;1.88;100.00
5996;BME280;3026;53.612;7.278;2022-12-08T03:37:19;100411.38;;;1.84;100.00
5996;BME280;3026;53.612;7.278;2022-12-08T03:39:46;100406.84;;;1.84;100.00
5996;BME280;3026;53.612;7.278;2022-12-08T03:42:13;100414.06;;;1.84;100.00
5996;BME280;3026;53.612;7.278;2022-12-08T03:44:40;100416.63;;;1.85;100.00
5996;BME280;3026;53.612;7.278;2022-12-08T03:47:07;100425.56;;;1.86;100.00
5996;BME280;3026;53.612;7.278;2022-12-08T03:49:34;100420.19;;;1.86;100.00
5996;BME280;3026;53.612;7.278;2022-12-08T03:52:01;100413.59;;;1.79;100.00
5996;BME280;3026;53.612;7.278;2022-12-08T03:54:29;100410.91;;;1.79;100.00
5996;BME280;3026;53.612;7.278;2022-12-08T03:56:56;100417.00;;;1.81;100.00
5996;BME280;3026;53.612;7.278;2022-12-08T03:59:23;100417.28;;;1.78;100.00
5996;BME280;3026;53.612;7.278;2022-12-08T04:01:50;100414.00;;;1.74;100.00
5996;BME280;3026;53.612;7.278;2022-12-08T04:04:16;100403.59;;;1.69;100.00
5996;BME280;3026;53.612;7.278;2022-12-08T04:06:43;100408.72;;;1.72;100.00
5996;BME280;3026;53.612;7.278;2022-12-08T04:09:10;100391.28;;;1.67;100.00
5996;BME280;3026;53.612;7.278;2022-12-08T04:11:38;100398.50;;;1.66;100.00
5996;BME280;3026;53.612;7.278;2022-12-08T04:14:05;100396.53;;;1.68;100.00
5996;BME280;3026;53.612;7.278;2022-12-08T04:16:32;100382.09;;;1.69;100.00
5996;BME280;3026;53.612;7.278;2022-12-08T04:18:59;100376.00;;;1.67;100.00
5996;BME280;3026;53.612;7.278;2022-12-08T04:21:26;100384.78;;;1.69;100.00
5996;BME280;3026;53.612;7.278;2022-12-08T04:23:53;100393.72;;;1.70;100.00
5996;BME280;3026;53.612;7.278;2022-12-08T04:26:20;100394.81;;;1.67;100.00
5996;BME280;3026;53.612;7.278;2022-12-08T04:28:48;100403.59;;;1.69;100.00
5996;BME280;3026;53.612;7.278;2022-12-08T04:31:15;100419.88;;;1.68;100.00
5996;BME280;3026;53.612;7.278;2022-12-08T04:33:42;100437.81;;;1.67;100.00
5996;BME280;3026;53.612;7.278;2022-12-08T04:36:08;100421.69;;;1.67;100.00
5996;BME280;3026;53.612;7.278;2022-12-08T04:38:35;100412.91;;;1.65;100.00
5996;BME280;3026;53.612;7.278;2022-12-08T04:41:02;100420.00;;;1.66;100.00
5996;BME280;3026;53.612;7.278;2022-12-08T04:43:29;100409.97;;;1.68;100.00
5996;BME280;3026;53.612;7.278;2022-12-08T04:45:58;100407.28;;;1.68;100.00
5996;BME280;3026;53.612;7.278;2022-12-08T04:48:25;100412.41;;;1.71;100.00
5996;BME280;3026;53.612;7.278;2022-12-08T04:50:52;100403.13;;;1.75;100.00
5996;BME280;3026;53.612;7.278;2022-12-08T04:53:19;100396.03;;;1.74;100.00
5996;BME280;3026;53.612;7.278;2022-12-08T04:55:45;100377.69;;;1.80;100.00
5996;BME280;3026;53.612;7.278;2022-12-08T04:58:16;100370.06;;;1.85;100.00
5996;BME280;3026;53.612;7.278;2022-12-08T05:00:44;100389.63;;;1.87;100.00
5996;BME280;3026;53.612;7.278;2022-12-08T05:03:14;100386.81;;;1.88;100.00
5996;BME280;3026;53.612;7.278;2022-12-08T05:05:41;100389.09;;;1.93;100.00
5996;BME280;3026;53.612;7.278;2022-12-08T05:08:08;100387.41;;;1.92;100.00
5996;BME280;3026;53.612;7.278;2022-12-08T05:10:36;100387.88;;;1.97;100.00
5996;BME280;3026;53.612;7.278;2022-12-08T05:13:03;100375.16;;;1.99;100.00
5996;BME280;3026;53.612;7.278;2022-12-08T05:15:30;100389.19;;;2.02;100.00
5996;BME280;3026;53.612;7.278;2022-12-08T05:17:57;100391.75;;;2.04;100.00
5996;BME280;3026;53.612;7.278;2022-12-08T05:20:25;100386.09;;;2.07;100.00
5996;BME280;3026;53.612;7.278;2022-12-08T05:22:52;100379.03;;;2.06;100.00
5996;BME280;3026;53.612;7.278;2022-12-08T05:25:19;100385.88;;;2.10;100.00
5996;BME280;3026;53.612;7.278;2022-12-08T05:27:46;100377.53;;;2.13;100.00
5996;BME280;3026;53.612;7.278;2022-12-08T05:30:13;100386.31;;;2.15;100.00
5996;BME280;3026;53.612;7.278;2022-12-08T05:32:40;100381.94;;;2.14;100.00
5996;BME280;3026;53.612;7.278;2022-12-08T05:35:07;100377.41;;;2.15;100.00
5996;BME280;3026;53.612;7.278;2022-12-08T05:37:36;100363.38;;;2.11;100.00
5996;BME280;3026;53.612;7.278;2022-12-08T05:40:04;100387.56;;;2.11;100.00
5996;BME280;3026;53.612;7.278;2022-12-08T05:42:31;100405.41;;;2.12;100.00
5996;BME280;3026;53.612;7.278;2022-12-08T05:44:58;100411.38;;;2.16;100.00
5996;BME280;3026;53.612;7.278;2022-12-08T05:47:25;100396.09;;;2.16;100.00
5996;BME280;3026;53.612;7.278;2022-12-08T05:49:52;100419.31;;;2.17;100.00
5996;BME280;3026;53.612;7.278;2022-12-08T05:52:19;100416.41;;;2.20;100.00
5996;BME280;3026;53.612;7.278;2022-12-08T05:54:47;100440.59;;;2.20;100.00
5996;BME280;3026;53.612;7.278;2022-12-08T05:57:14;100442.31;;;2.21;100.00
5996;BME280;3026;53.612;7.278;2022-12-08T05:59:40;100429.09;;;2.18;100.00
5996;BME280;3026;53.612;7.278;2022-12-08T06:02:07;100423.25;;;2.13;100.00
5996;BME280;3026;53.612;7.278;2022-12-08T06:04:34;100416.44;;;2.09;100.00
5996;BME280;3026;53.612;7.278;2022-12-08T06:07:01;100402.50;;;2.04;100.00
5996;BME280;3026;53.612;7.278;2022-12-08T06:09:28;100394.00;;;1.99;100.00
5996;BME280;3026;53.612;7.278;2022-12-08T06:11:56;100381.53;;;1.98;100.00
5996;BME280;3026;53.612;7.278;2022-12-08T06:14:23;100382.63;;;1.95;100.00
5996;BME280;3026;53.612;7.278;2022-12-08T06:16:50;100386.56;;;1.91;100.00
5996;BME280;3026;53.612;7.278;2022-12-08T06:19:17;100389.09;;;1.93;100.00
5996;BME280;3026;53.612;7.278;2022-12-08T06:21:44;100387.66;;;1.89;100.00
5996;BME280;3026;53.612;7.278;2022-12-08T06:24:11;100396.72;;;1.88;100.00
5996;BME280;3026;53.612;7.278;2022-12-08T06:26:38;100382.78;;;1.83;100.00
5996;BME280;3026;53.612;7.278;2022-12-08T06:29:07;100384.25;;;1.87;100.00
5996;BME280;3026;53.612;7.278;2022-12-08T06:31:34;100396.72;;;1.88;100.00
5996;BME280;3026;53.612;7.278;2022-12-08T06:34:01;100387.94;;;1.86;100.00
5996;BME280;3026;53.612;7.278;2022-12-08T06:36:28;100396.94;;;1.85;100.00
5996;BME280;3026;53.612;7.278;2022-12-08T06:38:55;100386.47;;;1.82;100.00
5996;BME280;3026;53.612;7.278;2022-12-08T06:41:22;100402.13;;;1.77;100.00
5996;BME280;3026;53.612;7.278;2022-12-08T06:43:49;100403.13;;;1.75;100.00
5996;BME280;3026;53.612;7.278;2022-12-08T06:46:18;100399.09;;;1.70;100.00
5996;BME280;3026;53.612;7.278;2022-12-08T06:48:46;100407.28;;;1.68;100.00
5996;BME280;3026;53.612;7.278;2022-12-08T06:51:16;100400.69;;;1.61;100.00
5996;BME280;3026;53.612;7.278;2022-12-08T06:53:45;100406.69;;;1.65;100.00
5996;BME280;3026;53.612;7.278;2022-12-08T06:56:13;100407.53;;;1.65;100.00
5996;BME280;3026;53.612;7.278;2022-12-08T06:58:40;100407.53;;;1.65;100.00
5996;BME280;3026;53.612;7.278;2022-12-08T07:01:08;100403.88;;;1.66;100.00
5996;BME280;3026;53.612;7.278;2022-12-08T07:03:38;100415.59;;;1.65;100.00
5996;BME280;3026;53.612;7.278;2022-12-08T07:06:08;100420.25;;;1.63;100.00
5996;BME280;3026;53.612;7.278;2022-12-08T07:08:39;100417.56;;;1.63;100.00
5996;BME280;3026;53.612;7.278;2022-12-08T07:11:08;100418.56;;;1.62;100.00
5996;BME280;3026;53.612;7.278;2022-12-08T07:13:35;100420.47;;;1.60;100.00
5996;BME280;3026;53.612;7.278;2022-12-08T07:16:04;100413.66;;;1.56;100.00
5996;BME280;3026;53.612;7.278;2022-12-08T07:18:31;100415.63;;;1.54;100.00
5996;BME280;3026;53.612;7.278;2022-12-08T07:21:03;100420.75;;;1.57;100.00
5996;BME280;3026;53.612;7.278;2022-12-08T07:23:30;100429.78;;;1.56;100.00
5996;BME280;3026;53.612;7.278;2022-12-08T07:25:59;100423.56;;;1.56;100.00
5996;BME280;3026;53.612;7.278;2022-12-08T07:28:26;100419.03;;;1.56;100.00
5996;BME280;3026;53.612;7.278;2022-12-08T07:30:53;100429.53;;;1.59;100.00
5996;BME280;3026;53.612;7.278;2022-12-08T07:33:22;100425.38;;;1.55;100.00
5996;BME280;3026;53.612;7.278;2022-12-08T07:36:07;100433.19;;;1.58;100.00
5996;BME280;3026;53.612;7.278;2022-12-08T07:38:46;100422.44;;;1.58;100.00
5996;BME280;3026;53.612;7.278;2022-12-08T07:41:22;100431.00;;;1.63;100.00
5996;BME280;3026;53.612;7.278;2022-12-08T07:43:50;100435.13;;;1.67;100.00
5996;BME280;3026;53.612;7.278;2022-12-08T07:46:20;100429.03;;;1.65;100.00
5996;BME280;3026;53.612;7.278;2022-12-08T07:48:47;100428.78;;;1.68;100.00
5996;BME280;3026;53.612;7.278;2022-12-08T07:51:15;100432.44;;;1.67;100.00
5996;BME280;3026;53.612;7.278;2022-12-08T07:53:44;100427.34;;;1.64;100.00
5996;BME280;3026;53.612;7.278;2022-12-08T07:56:12;100428.31;;;1.63;100.00
5996;BME280;3026;53.612;7.278;2022-12-08T07:58:40;100425.25;;;1.57;100.00
5996;BME280;3026;53.612;7.278;2022-12-08T08:01:18;100427.56;;;1.61;100.00
5996;BME280;3026;53.612;7.278;2022-12-08T08:03:45;100410.97;;;1.56;100.00
5996;BME280;3026;53.612;7.278;2022-12-08T08:06:12;100418.56;;;1.62;100.00
5996;BME280;3026;53.612;7.278;2022-12-08T08:08:40;100421.97;;;1.64;100.00
5996;BME280;3026;53.612;7.278;2022-12-08T08:11:08;100415.47;;;1.67;100.00
5996;BME280;3026;53.612;7.278;2022-12-08T08:13:35;100422.28;;;1.71;100.00
5996;BME280;3026;53.612;7.278;2022-12-08T08:16:04;100431.69;;;1.77;100.00
5996;BME280;3026;53.612;7.278;2022-12-08T08:18:32;100429.72;;;1.79;100.00
5996;BME280;3026;53.612;7.278;2022-12-08T08:20:59;100464.41;;;1.82;100.00
5996;BME280;3026;53.612;7.278;2022-12-08T08:23:26;100469.06;;;1.80;100.00
5996;BME280;3026;53.612;7.278;2022-12-08T08:25:57;100464.56;;;1.80;100.00
5996;BME280;3026;53.612;7.278;2022-12-08T08:28:25;100459.91;;;1.82;100.00
5996;BME280;3026;53.612;7.278;2022-12-08T08:30:51;100456.00;;;1.86;100.00
5996;BME280;3026;53.612;7.278;2022-12-08T08:33:19;100451.34;;;1.88;100.00
5996;BME280;3026;53.612;7.278;2022-12-08T08:35:45;100457.31;;;1.92;100.00
5996;BME280;3026;53.612;7.278;2022-12-08T08:38:13;100446.81;;;1.89;100.00
5996;BME280;3026;53.612;7.278;2022-12-08T08:40:40;100451.94;;;1.92;100.00
5996;BME280;3026;53.612;7.278;2022-12-08T08:43:08;100452.88;;;2.02;100.00
5996;BME280;3026;53.612;7.278;2022-12-08T08:45:54;100460.44;;;2.08;100.00
5996;BME280;3026;53.612;7.278;2022-12-08T08:48:21;100462.88;;;2.11;100.00
5996;BME280;3026;53.612;7.278;2022-12-08T08:50:48;100467.16;;;2.14;100.00
5996;BME280;3026;53.612;7.278;2022-12-08T08:53:15;100462.63;;;2.14;100.00
5996;BME280;3026;53.612;7.278;2022-12-08T08:55:41;100466.03;;;2.16;100.00
5996;BME280;3026;53.612;7.278;2022-12-08T08:58:10;100464.06;;;2.18;100.00
5996;BME280;3026;53.612;7.278;2022-12-08T09:00:37;100463.22;;;2.18;100.00
5996;BME280;3026;53.612;7.278;2022-12-08T09:03:04;100469.44;;;2.18;100.00
5996;BME280;3026;53.612;7.278;2022-12-08T09:05:31;100465.75;;;2.19;100.00
5996;BME280;3026;53.612;7.278;2022-12-08T09:07:58;100472.88;;;2.20;100.00
5996;BME280;3026;53.612;7.278;2022-12-08T09:10:27;100461.38;;;2.18;100.00
5996;BME280;3026;53.612;7.278;2022-12-08T09:12:54;100467.50;;;2.20;100.00
5996;BME280;3026;53.612;7.278;2022-12-08T09:15:23;100456.13;;;2.17;100.00
5996;BME280;3026;53.612;7.278;2022-12-08T09:17:50;100456.75;;;2.20;100.00
5996;BME280;3026;53.612;7.278;2022-12-08T09:20:16;100463.81;;;2.21;100.00
5996;BME280;3026;53.612;7.278;2022-12-08T09:22:43;100463.56;;;2.24;100.00
5996;BME280;3026;53.612;7.278;2022-12-08T09:25:10;100467.97;;;2.25;100.00
5996;BME280;3026;53.612;7.278;2022-12-08T09:27:37;100474.91;;;2.28;100.00
5996;BME280;3026;53.612;7.278;2022-12-08T09:30:05;100472.34;;;2.26;100.00
5996;BME280;3026;53.612;7.278;2022-12-08T09:32:34;100471.84;;;2.32;100.00
5996;BME280;3026;53.612;7.278;2022-12-08T09:35:01;100463.50;;;2.36;100.00
5996;BME280;3026;53.612;7.278;2022-12-08T09:37:28;100467.91;;;2.37;100.00
5996;BME280;3026;53.612;7.278;2022-12-08T09:39:55;100469.34;;;2.41;100.00
5996;BME280;3026;53.612;7.278;2022-12-08T09:42:31;100467.38;;;2.43;100.00
5996;BME280;3026;53.612;7.278;2022-12-08T09:45:04;100472.25;;;2.49;100.00
5996;BME280;3026;53.612;7.278;2022-12-08T09:47:36;100464.63;;;2.54;100.00
5996;BME280;3026;53.612;7.278;2022-12-08T09:50:09;100474.03;;;2.59;100.00
5996;BME280;3026;53.612;7.278;2022-12-08T09:52:41;100470.69;;;2.67;100.00
5996;BME280;3026;53.612;7.278;2022-12-08T09:55:16;100466.75;;;2.71;100.00
5996;BME280;3026;53.612;7.278;2022-12-08T09:57:53;100461.69;;;2.78;100.00
5996;BME280;3026;53.612;7.278;2022-12-08T10:00:23;100469.09;;;2.85;100.00
5996;BME280;3026;53.612;7.278;2022-12-08T10:02:51;100469.44;;;2.92;100.00
5996;BME280;3026;53.612;7.278;2022-12-08T10:05:18;100466.06;;;3.00;100.00
5996;BME280;3026;53.612;7.278;2022-12-08T10:07:47;100474.34;;;3.08;100.00
5996;BME280;3026;53.612;7.278;2022-12-08T10:10:24;100471.56;;;3.19;100.00
5996;BME280;3026;53.612;7.278;2022-12-08T10:12:58;100464.81;;;3.34;100.00
5996;BME280;3026;53.612;7.278;2022-12-08T10:15:36;100462.91;;;3.56;100.00
5996;BME280;3026;53.612;7.278;2022-12-08T10:18:14;100460.69;;;3.70;100.00
5996;BME280;3026;53.612;7.278;2022-12-08T10:20:47;100457.34;;;3.88;100.00
5996;BME280;3026;53.612;7.278;2022-12-08T10:23:23;100452.38;;;4.02;100.00
5996;BME280;3026;53.612;7.278;2022-12-08T10:25:56;100462.75;;;4.17;100.00
5996;BME280;3026;53.612;7.278;2022-12-08T10:28:26;100461.53;;;4.40;100.00
5996;BME280;3026;53.612;7.278;2022-12-08T10:30:53;100468.44;;;4.72;100.00
5996;BME280;3026;53.612;7.278;2022-12-08T10:33:21;100467.72;;;4.89;100.00
5996;BME280;3026;53.612;7.278;2022-12-08T10:35:50;100466.97;;;5.06;100.00
5996;BME280;3026;53.612;7.278;2022-12-08T10:38:20;100462.38;;;5.16;100.00
5996;BME280;3026;53.612;7.278;2022-12-08T10:40:49;100465.88;;;5.36;100.00
5996;BME280;3026;53.612;7.278;2022-12-08T10:43:20;100470.69;;;5.42;100.00
5996;BME280;3026;53.612;7.278;2022-12-08T10:45:48;100467.75;;;5.63;100.00
5996;BME280;3026;53.612;7.278;2022-12-08T10:48:17;100475.47;;;5.85;100.00
5996;BME280;3026;53.612;7.278;2022-12-08T10:50:53;100481.06;;;6.02;100.00
5996;BME280;3026;53.612;7.278;2022-12-08T10:53:22;100477.25;;;6.22;100.00
5996;BME280;3026;53.612;7.278;2022-12-08T10:55:50;100482.59;;;6.14;100.00
5996;BME280;3026;53.612;7.278;2022-12-08T10:58:27;100475.38;;;6.05;100.00
5996;BME280;3026;53.612;7.278;2022-12-08T11:00:55;100468.88;;;5.98;100.00
5996;BME280;3026;53.612;7.278;2022-12-08T11:03:26;100480.53;;;5.98;100.00
5996;BME280;3026;53.612;7.278;2022-12-08T11:06:00;100471.19;;;5.83;100.00
5996;BME280;3026;53.612;7.278;2022-12-08T11:08:44;100471.78;;;5.77;100.00
5996;BME280;3026;53.612;7.278;2022-12-08T11:11:13;100459.53;;;5.82;100.00
5996;BME280;3026;53.612;7.278;2022-12-08T11:13:41;100467.78;;;5.91;100.00
5996;BME280;3026;53.612;7.278;2022-12-08T11:16:10;100468.88;;;5.98;100.00
5996;BME280;3026;53.612;7.278;2022-12-08T11:18:40;100477.09;;;6.06;100.00
5996;BME280;3026;53.612;7.278;2022-12-08T11:21:12;100470.81;;;6.23;100.00
5996;BME280;3026;53.612;7.278;2022-12-08T11:23:42;100475.53;;;6.21;100.00
5996;BME280;3026;53.612;7.278;2022-12-08T11:26:19;100478.09;;;6.23;100.00
5996;BME280;3026;53.612;7.278;2022-12-08T11:28:46;100471.81;;;6.22;100.00
5996;BME280;3026;53.612;7.278;2022-12-08T11:31:21;100470.59;;;6.34;100.00
5996;BME280;3026;53.612;7.278;2022-12-08T11:33:52;100463.09;;;6.28;100.00
5996;BME280;3026;53.612;7.278;2022-12-08T11:36:23;100468.91;;;6.33;100.00
5996;BME280;3026;53.612;7.278;2022-12-08T11:38:55;100471.59;;;6.33;100.00
5996;BME280;3026;53.612;7.278;2022-12-08T11:41:25;100471.81;;;6.22;100.00
5996;BME280;3026;53.612;7.278;2022-12-08T11:43:58;100475.66;;;6.02;100.00
5996;BME280;3026;53.612;7.278;2022-12-08T11:46:31;100478.59;;;5.91;100.00
5996;BME280;3026;53.612;7.278;2022-12-08T11:49:02;100476.63;;;5.83;100.00
5996;BME280;3026;53.612;7.278;2022-12-08T11:51:31;100475.97;;;5.71;100.00
5996;BME280;3026;53.612;7.278;2022-12-08T11:54:07;100479.25;;;5.65;100.00
5996;BME280;3026;53.612;7.278;2022-12-08T11:56:38;100474.13;;;5.72;100.00
5996;BME280;3026;53.612;7.278;2022-12-08T11:59:11;100484.78;;;6.01;100.00
5996;BME280;3026;53.612;7.278;2022-12-08T12:01:41;100485.00;;;6.17;100.00
5996;BME280;3026;53.612;7.278;2022-12-08T12:04:16;100491.19;;;6.27;100.00
5996;BME280;3026;53.612;7.278;2022-12-08T12:07:15;100482.38;;;6.25;100.00
5996;BME280;3026;53.612;7.278;2022-12-08T12:10:00;100478.94;;;6.23;100.00
5996;BME280;3026;53.612;7.278;2022-12-08T12:12:42;100488.84;;;6.32;100.00
5996;BME280;3026;53.612;7.278;2022-12-08T12:15:41;100482.66;;;6.22;100.00
5996;BME280;3026;53.612;7.278;2022-12-08T12:18:21;100480.38;;;6.00;100.00
5996;BME280;3026;53.612;7.278;2022-12-08T12:20:52;100480.31;;;5.82;100.00
5996;BME280;3026;53.612;7.278;2022-12-08T12:23:23;100487.78;;;5.70;100.00
5996;BME280;3026;53.612;7.278;2022-12-08T12:25:55;100485.28;;;5.59;100.00
5996;BME280;3026;53.612;7.278;2022-12-08T12:28:24;100482.47;;;5.51;100.00
5996;BME280;3026;53.612;7.278;2022-12-08T12:30:56;100489.03;;;5.48;100.00
5996;BME280;3026;53.612;7.278;2022-12-08T12:33:25;100485.91;;;5.43;100.00
5996;BME280;3026;53.612;7.278;2022-12-08T12:35:55;100486.19;;;5.40;100.00
5996;BME280;3026;53.612;7.278;2022-12-08T12:38:26;100484.97;;;5.35;100.00
5996;BME280;3026;53.612;7.278;2022-12-08T12:41:15;100485.97;;;5.34;100.00
5996;BME280;3026;53.612;7.278;2022-12-08T12:46:56;100487.13;;;5.21;100.00
5996;BME280;3026;53.612;7.278;2022-12-08T12:52:41;100480.91;;;5.11;100.00
5996;BME280;3026;53.612;7.278;2022-12-08T12:58:38;100494.56;;;5.00;100.00
5996;BME280;3026;53.612;7.278;2022-12-08T13:04:32;100488.88;;;4.93;100.00
5996;BME280;3026;53.612;7.278;2022-12-08T13:07:00;100483.78;;;4.90;100.00
5996;BME280;3026;53.612;7.278;2022-12-08T13:09:31;100488.34;;;4.90;100.00
5996;BME280;3026;53.612;7.278;2022-12-08T13:12:01;100484.09;;;4.87;100.00
5996;BME280;3026;53.612;7.278;2022-12-08T13:14:38;100483.50;;;4.84;100.00
5996;BME280;3026;53.612;7.278;2022-12-08T13:17:12;100478.78;;;4.86;100.00
5996;BME280;3026;53.612;7.278;2022-12-08T13:19:44;100484.94;;;4.88;100.00
5996;BME280;3026;53.612;7.278;2022-12-08T13:22:56;100479.53;;;4.88;100.00
5996;BME280;3026;53.612;7.278;2022-12-08T13:25:45;100479.53;;;4.88;100.00
5996;BME280;3026;53.612;7.278;2022-12-08T13:28:17;100476.81;;;4.88;100.00
5996;BME280;3026;53.612;7.278;2022-12-08T13:30:47;100474.41;;;4.85;100.00
5996;BME280;3026;53.612;7.278;2022-12-08T13:33:17;100485.19;;;4.85;100.00
5996;BME280;3026;53.612;7.278;2022-12-08T13:35:55;100475.00;;;4.79;100.00
5996;BME280;3026;53.612;7.278;2022-12-08T13:38:26;100483.38;;;4.76;100.00
5996;BME280;3026;53.612;7.278;2022-12-08T13:40:56;100480.94;;;4.73;100.00